createdAt,value
2019-04-04T00:02:05.747Z,7.50
2019-04-04T00:04:54.039Z,7.50
2019-04-04T00:07:42.451Z,7.50
2019-04-04T00:10:30.571Z,7.40
2019-04-04T00:13:18.562Z,7.50
2019-04-04T00:16:07.607Z,7.40
2019-04-04T00:18:58.477Z,7.60
2019-04-04T00:21:46.010Z,7.60
2019-04-04T00:24:34.662Z,7.60
2019-04-04T00:27:22.506Z,7.70
2019-04-04T00:30:12.703Z,7.70
2019-04-04T00:33:00.820Z,7.70
2019-04-04T00:35:48.874Z,7.70
2019-04-04T00:38:37.982Z,7.70
2019-04-04T00:41:26.395Z,7.60
2019-04-04T00:44:14.324Z,7.50
2019-04-04T00:47:02.281Z,7.50
2019-04-04T00:49:50.254Z,7.50
2019-04-04T00:52:40.586Z,7.40
2019-04-04T00:55:27.427Z,7.50
2019-04-04T00:58:15.772Z,7.40
2019-04-04T01:01:04.295Z,7.40
2019-04-04T01:03:52.477Z,7.50
2019-04-04T01:06:40.158Z,7.50
2019-04-04T01:09:28.417Z,7.50
2019-04-04T01:12:15.983Z,7.40
2019-04-04T01:15:03.611Z,7.40
2019-04-04T01:17:52.542Z,7.40
2019-04-04T01:20:41.107Z,7.40
2019-04-04T01:23:29.256Z,7.50
2019-04-04T01:26:17.699Z,7.50
2019-04-04T01:29:06.184Z,7.40
2019-04-04T01:31:54.310Z,7.20
2019-04-04T01:34:43.035Z,7.30
2019-04-04T01:37:31.231Z,7.20
2019-04-04T01:40:19.714Z,7.20
2019-04-04T01:43:09.332Z,7.30
2019-04-04T01:45:58.390Z,7.30
2019-04-04T01:48:49.700Z,7.20
2019-04-04T01:51:36.366Z,7.20
2019-04-04T01:54:24.263Z,7.20
2019-04-04T01:57:12.530Z,7.10
2019-04-04T02:00:00.908Z,7.10
2019-04-04T02:02:49.967Z,7.20
2019-04-04T02:05:39.256Z,7.20
2019-04-04T02:08:26.858Z,7.20
2019-04-04T02:11:15.327Z,7.10
2019-04-04T02:14:04.046Z,7.10
2019-04-04T02:16:52.006Z,7.10
2019-04-04T02:19:40.134Z,7.10
2019-04-04T02:22:30.688Z,7.00
2019-04-04T02:25:17.731Z,6.90
2019-04-04T02:28:06.933Z,6.80
2019-04-04T02:30:55.836Z,6.80
2019-04-04T02:33:44.474Z,6.80
2019-04-04T02:36:32.548Z,6.60
2019-04-04T02:39:21.809Z,6.60
2019-04-04T02:42:09.740Z,6.60
2019-04-04T02:44:58.352Z,6.60
2019-04-04T02:47:50.278Z,6.60
2019-04-04T02:50:36.100Z,6.50
2019-04-04T02:53:24.155Z,6.10
2019-04-04T02:56:12.088Z,6.20
2019-04-04T02:59:00.086Z,6.20
2019-04-04T03:01:47.865Z,6.30
2019-04-04T03:04:35.942Z,6.30
2019-04-04T03:07:23.491Z,6.30
2019-04-04T03:10:15.358Z,6.20
2019-04-04T03:13:01.649Z,6.20
2019-04-04T03:15:50.223Z,6.30
2019-04-04T03:18:38.483Z,6.30
2019-04-04T03:21:26.494Z,6.30
2019-04-04T03:24:13.963Z,6.20
2019-04-04T03:27:01.901Z,6.20
2019-04-04T03:29:50.515Z,6.20
2019-04-04T03:32:38.345Z,6.10
2019-04-04T03:35:28.649Z,6.20
2019-04-04T03:38:15.580Z,6.30
2019-04-04T03:41:04.129Z,6.30
2019-04-04T03:43:52.407Z,6.30
2019-04-04T03:46:40.671Z,6.40
2019-04-04T03:49:29.152Z,6.40
2019-04-04T03:52:17.435Z,6.30
2019-04-04T03:55:06.578Z,6.30
2019-04-04T03:57:55.286Z,6.30
2019-04-04T04:00:43.548Z,6.30
2019-04-04T04:03:31.211Z,6.30
2019-04-04T04:06:19.675Z,6.40
2019-04-04T04:09:08.183Z,6.40
2019-04-04T04:11:55.947Z,6.50
2019-04-04T04:14:43.839Z,6.50
2019-04-04T04:17:35.983Z,6.50
2019-04-04T04:20:22.211Z,6.40
2019-04-04T04:23:10.055Z,6.40
2019-04-04T04:25:58.240Z,6.30
2019-04-04T04:28:45.718Z,6.20
2019-04-04T04:31:33.505Z,6.10
2019-04-04T04:34:21.695Z,6.00
2019-04-04T04:37:09.898Z,6.00
2019-04-04T04:39:58.386Z,6.10
2019-04-04T04:42:46.344Z,6.10
2019-04-04T04:45:34.793Z,6.10
2019-04-04T04:48:25.809Z,6.20
2019-04-04T04:51:12.786Z,6.20
2019-04-04T04:54:00.824Z,6.20
2019-04-04T04:56:48.660Z,6.20
2019-04-04T04:59:36.426Z,6.20
2019-04-04T05:02:24.600Z,6.20
2019-04-04T05:05:12.924Z,6.20
2019-04-04T05:08:01.291Z,6.20
2019-04-04T05:10:49.520Z,6.10
2019-04-04T05:13:37.272Z,6.10
2019-04-04T05:16:25.743Z,6.10
2019-04-04T05:19:13.699Z,6.30
2019-04-04T05:22:01.126Z,6.30
2019-04-04T05:25:07.034Z,6.40
2019-04-04T05:27:38.556Z,6.40
2019-04-04T05:30:26.208Z,6.30
2019-04-04T05:33:14.715Z,6.20
2019-04-04T05:36:05.005Z,6.40
2019-04-04T05:38:52.288Z,6.30
2019-04-04T05:41:40.959Z,6.30
2019-04-04T05:44:29.266Z,6.40
2019-04-04T05:47:17.562Z,6.40
2019-04-04T05:50:05.811Z,6.40
2019-04-04T05:52:53.959Z,6.40
2019-04-04T05:55:42.571Z,6.50
2019-04-04T05:58:30.932Z,6.50
2019-04-04T06:01:19.066Z,6.50
2019-04-04T06:04:07.229Z,6.50
2019-04-04T06:06:55.704Z,6.50
2019-04-04T06:09:46.827Z,6.50
2019-04-04T06:12:34.035Z,6.40
2019-04-04T06:15:22.044Z,6.50
2019-04-04T06:18:11.764Z,6.50
2019-04-04T06:21:00.275Z,6.50
2019-04-04T06:23:48.608Z,6.60
2019-04-04T06:26:38.158Z,6.70
2019-04-04T06:29:25.880Z,6.80
2019-04-04T06:32:14.134Z,6.80
2019-04-04T06:35:01.997Z,6.90
2019-04-04T06:37:51.315Z,6.90
2019-04-04T06:40:39.755Z,6.80
2019-04-04T06:43:27.433Z,6.80
2019-04-04T06:46:18.961Z,6.80
2019-04-04T06:49:05.107Z,6.70
2019-04-04T06:51:53.636Z,6.70
2019-04-04T06:54:41.819Z,6.80
2019-04-04T06:57:30.043Z,7.00
2019-04-04T07:00:18.755Z,7.10
2019-04-04T07:03:07.077Z,7.20
2019-04-04T07:05:54.530Z,7.30
2019-04-04T07:08:42.702Z,7.50
2019-04-04T07:11:30.238Z,7.60
2019-04-04T07:14:18.479Z,7.50
2019-04-04T07:17:08.540Z,7.50
2019-04-04T07:19:55.955Z,7.40
2019-04-04T07:22:44.632Z,7.40
2019-04-04T07:25:35.732Z,7.50
2019-04-04T07:28:23.034Z,7.50
2019-04-04T07:31:10.759Z,7.50
2019-04-04T07:33:58.464Z,7.60
2019-04-04T07:36:47.038Z,7.70
2019-04-04T07:39:35.478Z,7.60
2019-04-04T07:42:23.403Z,7.40
2019-04-04T07:45:14.268Z,7.50
2019-04-04T07:48:01.240Z,7.40
2019-04-04T07:50:51.339Z,7.40
2019-04-04T07:53:38.539Z,7.40
2019-04-04T07:56:26.259Z,7.50
2019-04-04T07:59:14.230Z,7.50
2019-04-04T08:02:02.422Z,7.50
2019-04-04T08:04:50.208Z,7.50
2019-04-04T08:07:38.374Z,7.50
2019-04-04T08:10:25.833Z,7.40
2019-04-04T08:13:14.263Z,7.50
2019-04-04T08:16:02.270Z,7.40
2019-04-04T08:18:50.068Z,7.30
2019-04-04T08:21:37.659Z,7.30
2019-04-04T08:24:25.665Z,7.30
2019-04-04T08:27:13.396Z,7.50
2019-04-04T08:30:01.551Z,7.60
2019-04-04T08:32:49.537Z,7.60
2019-04-04T08:35:37.046Z,7.50
2019-04-04T08:38:25.178Z,7.70
2019-04-04T08:41:12.797Z,7.70
2019-04-04T08:44:01.226Z,7.70
2019-04-04T08:46:50.071Z,7.80
2019-04-04T08:49:37.614Z,7.60
2019-04-04T08:52:26.043Z,7.70
2019-04-04T08:55:14.244Z,7.60
2019-04-04T08:58:02.414Z,7.70
2019-04-04T09:00:50.719Z,7.80
2019-04-04T09:03:39.020Z,7.80
2019-04-04T09:06:27.052Z,7.90
2019-04-04T09:09:15.258Z,8.10
2019-04-04T09:12:02.823Z,8.10
2019-04-04T09:14:51.078Z,8.10
2019-04-04T09:17:39.237Z,8.20
2019-04-04T09:20:27.349Z,8.20
2019-04-04T09:23:16.100Z,8.20
2019-04-04T09:26:05.734Z,8.20
2019-04-04T09:28:55.067Z,8.40
2019-04-04T09:31:43.214Z,8.20
2019-04-04T09:34:31.299Z,8.20
2019-04-04T09:37:20.047Z,8.30
2019-04-04T09:40:08.066Z,8.40
2019-04-04T09:42:56.247Z,8.20
2019-04-04T09:45:44.631Z,8.40
2019-04-04T09:48:32.766Z,8.30
2019-04-04T09:51:20.866Z,8.30
2019-04-04T09:54:09.284Z,8.20
2019-04-04T09:56:57.467Z,8.20
2019-04-04T09:59:46.074Z,8.20
2019-04-04T10:02:33.810Z,8.20
2019-04-04T10:05:22.197Z,8.20
2019-04-04T10:08:10.311Z,8.10
2019-04-04T10:10:58.464Z,8.00
2019-04-04T10:13:46.691Z,8.00
2019-04-04T10:16:34.358Z,8.10
2019-04-04T10:19:22.280Z,8.10
2019-04-04T10:22:10.614Z,8.00
2019-04-04T10:24:58.808Z,8.00
2019-04-04T10:27:47.807Z,8.00
2019-04-04T10:30:35.547Z,8.10
2019-04-04T10:33:23.563Z,8.00
2019-04-04T10:36:11.896Z,8.10
2019-04-04T10:39:00.160Z,8.30
2019-04-04T10:41:47.920Z,8.30
2019-04-04T10:44:37.258Z,8.30
2019-04-04T10:47:25.607Z,8.40
2019-04-04T10:50:14.582Z,8.60
2019-04-04T10:53:03.079Z,8.50
2019-04-04T10:55:51.024Z,8.40
2019-04-04T10:58:38.982Z,8.30
2019-04-04T11:01:27.178Z,8.10
2019-04-04T11:04:15.325Z,8.10
2019-04-04T11:07:03.650Z,8.20
2019-04-04T11:09:51.813Z,8.40
2019-04-04T11:12:40.268Z,8.40
2019-04-04T11:15:28.524Z,8.30
2019-04-04T11:18:17.322Z,8.50
2019-04-04T11:21:05.663Z,8.60
2019-04-04T11:23:53.483Z,8.30
2019-04-04T11:26:41.566Z,8.20
2019-04-04T11:29:29.934Z,8.00
2019-04-04T11:32:17.450Z,8.00
2019-04-04T11:35:06.376Z,8.10
2019-04-04T11:37:54.790Z,8.10
2019-04-04T11:40:43.104Z,8.10
2019-04-04T11:43:30.563Z,8.10
2019-04-04T11:46:18.573Z,8.10
2019-04-04T11:49:07.129Z,8.10
2019-04-04T11:51:55.835Z,8.10
2019-04-04T11:55:03.111Z,8.00
2019-04-04T11:57:51.444Z,8.20
2019-04-04T12:00:40.827Z,8.20
2019-04-04T12:03:29.099Z,8.30
2019-04-04T12:06:17.506Z,8.50
2019-04-04T12:09:07.590Z,8.50
2019-04-04T12:11:55.963Z,8.70
2019-04-04T12:14:43.899Z,8.60
2019-04-04T12:17:31.890Z,8.70
2019-04-04T12:20:20.175Z,8.70
2019-04-04T12:23:07.851Z,8.70
2019-04-04T12:25:56.119Z,8.80
2019-04-04T12:28:44.307Z,8.80
2019-04-04T12:31:32.755Z,8.70
2019-04-04T12:34:20.756Z,8.90
2019-04-04T12:37:08.938Z,9.00
2019-04-04T12:39:57.420Z,8.80
2019-04-04T12:42:45.000Z,8.90
2019-04-04T12:45:33.752Z,8.90
2019-04-04T12:48:22.070Z,9.00
2019-04-04T12:51:10.435Z,8.70
2019-04-04T12:53:58.351Z,8.70
2019-04-04T12:56:46.524Z,8.70
2019-04-04T12:59:34.819Z,8.80
2019-04-04T13:02:22.699Z,8.70
2019-04-04T13:05:12.133Z,8.80
2019-04-04T13:08:00.338Z,8.70
2019-04-04T13:10:48.560Z,8.70
2019-04-04T13:13:38.185Z,9.00
2019-04-04T13:16:26.854Z,9.00
2019-04-04T13:19:15.748Z,9.00
2019-04-04T13:22:04.688Z,9.10
2019-04-04T13:24:52.515Z,9.00
2019-04-04T13:27:40.692Z,9.10
2019-04-04T13:30:28.594Z,8.70
2019-04-04T13:33:16.553Z,8.60
2019-04-04T13:36:04.790Z,8.40
2019-04-04T13:38:55.025Z,8.20
2019-04-04T13:41:42.351Z,8.20
2019-04-04T13:44:30.251Z,8.10
2019-04-04T13:47:18.707Z,8.00
2019-04-04T13:50:07.282Z,8.00
2019-04-04T13:52:54.795Z,7.90
2019-04-04T13:55:42.878Z,7.90
2019-04-04T13:58:30.928Z,7.90
2019-04-04T14:01:18.730Z,8.00
2019-04-04T14:04:06.219Z,8.00
2019-04-04T14:06:54.426Z,8.10
2019-04-04T14:09:44.682Z,8.00
2019-04-04T14:12:31.912Z,8.10
2019-04-04T14:15:19.486Z,8.20
2019-04-04T14:18:21.892Z,8.10
2019-04-04T14:21:10.027Z,8.10
2019-04-04T14:23:58.184Z,8.10
2019-04-04T14:26:46.504Z,8.10
2019-04-04T14:29:35.187Z,8.20
2019-04-04T14:32:22.999Z,8.30
2019-04-04T14:35:11.823Z,8.20
2019-04-04T14:37:59.615Z,8.30
2019-04-04T14:40:47.757Z,8.20
2019-04-04T14:43:35.967Z,8.30
2019-04-04T14:46:24.673Z,8.50
2019-04-04T14:49:14.578Z,8.50
2019-04-04T14:52:02.987Z,8.80
2019-04-04T14:54:51.392Z,9.00
2019-04-04T14:57:39.266Z,9.30
2019-04-04T15:00:26.896Z,9.20
2019-04-04T15:03:15.320Z,9.20
2019-04-04T15:06:03.582Z,9.00
2019-04-04T15:08:51.327Z,8.90
2019-04-04T15:11:39.547Z,8.70
2019-04-04T15:14:27.527Z,8.60
2019-04-04T15:17:15.727Z,8.60
2019-04-04T15:20:03.371Z,8.60
2019-04-04T15:22:51.867Z,8.40
2019-04-04T15:25:40.415Z,8.30
2019-04-04T15:28:28.371Z,8.20
2019-04-04T15:31:16.999Z,8.00
2019-04-04T15:34:05.103Z,8.00
2019-04-04T15:36:53.960Z,8.00
2019-04-04T15:39:41.646Z,7.90
2019-04-04T15:42:29.883Z,7.90
2019-04-04T15:45:17.443Z,8.00
2019-04-04T15:48:06.044Z,8.00
2019-04-04T15:50:54.839Z,8.10
2019-04-04T15:53:42.592Z,8.10
2019-04-04T15:56:30.970Z,8.20
2019-04-04T15:59:19.476Z,8.10
2019-04-04T16:02:07.995Z,8.00
2019-04-04T16:04:56.132Z,8.00
2019-04-04T16:07:44.007Z,7.90
2019-04-04T16:10:31.587Z,7.80
2019-04-04T16:13:20.130Z,7.90
2019-04-04T16:16:08.527Z,7.80
2019-04-04T16:18:56.491Z,7.70
2019-04-04T16:21:44.320Z,7.70
2019-04-04T16:24:32.710Z,7.80
2019-04-04T16:27:20.979Z,7.70
2019-04-04T16:30:08.974Z,7.70
2019-04-04T16:32:57.715Z,7.80
2019-04-04T16:35:45.867Z,7.80
2019-04-04T16:38:34.426Z,7.90
2019-04-04T16:41:22.243Z,8.00
2019-04-04T16:44:10.248Z,8.00
2019-04-04T16:46:59.115Z,7.90
2019-04-04T16:49:48.159Z,7.70
2019-04-04T16:52:36.063Z,7.70
2019-04-04T16:55:24.517Z,7.70
2019-04-04T16:58:12.987Z,7.60
2019-04-04T17:01:01.271Z,7.70
2019-04-04T17:04:01.019Z,7.70
2019-04-04T17:06:38.968Z,7.70
2019-04-04T17:09:27.379Z,7.70
2019-04-04T17:12:16.015Z,7.70
2019-04-04T17:15:04.490Z,7.60
2019-04-04T17:17:52.286Z,7.70
2019-04-04T17:20:40.584Z,7.70
2019-04-04T17:23:28.084Z,7.80
2019-04-04T17:26:15.918Z,7.80
2019-04-04T17:29:03.735Z,7.70
2019-04-04T17:31:52.578Z,7.80
2019-04-04T17:34:41.056Z,7.80
2019-04-04T17:37:29.631Z,7.80
2019-04-04T17:40:17.996Z,7.80
2019-04-04T17:43:06.078Z,7.70
2019-04-04T17:45:54.335Z,7.70
2019-04-04T17:48:42.794Z,7.70
2019-04-04T17:51:30.599Z,7.60
2019-04-04T17:54:18.705Z,7.50
2019-04-04T17:57:07.383Z,7.60
2019-04-04T17:59:55.753Z,7.50
2019-04-04T18:02:44.255Z,7.50
2019-04-04T18:05:32.363Z,7.50
2019-04-04T18:08:20.404Z,7.50
2019-04-04T18:11:07.946Z,7.40
2019-04-04T18:13:55.804Z,7.50
2019-04-04T18:16:44.292Z,7.50
2019-04-04T18:19:32.481Z,7.50
2019-04-04T18:22:20.912Z,7.50
2019-04-04T18:25:08.913Z,7.60
2019-04-04T18:27:57.519Z,7.60
2019-04-04T18:30:45.901Z,7.50
2019-04-04T18:33:34.374Z,7.40
2019-04-04T18:36:23.232Z,7.40
2019-04-04T18:39:11.709Z,7.40
2019-04-04T18:41:59.463Z,7.30
2019-04-04T18:44:47.731Z,7.40
2019-04-04T18:47:35.459Z,7.40
2019-04-04T18:50:23.531Z,7.40
2019-04-04T18:53:11.759Z,7.40
2019-04-04T18:56:00.125Z,7.50
2019-04-04T18:58:48.339Z,7.40
2019-04-04T19:01:36.860Z,7.50
2019-04-04T19:04:24.479Z,7.50
2019-04-04T19:07:12.643Z,7.60
2019-04-04T19:10:01.039Z,7.50
2019-04-04T19:12:49.231Z,7.40
2019-04-04T19:15:37.919Z,7.50
2019-04-04T19:18:25.456Z,7.40
2019-04-04T19:21:13.776Z,7.30
2019-04-04T19:24:02.347Z,7.20
2019-04-04T19:26:50.797Z,7.30
2019-04-04T19:29:39.395Z,7.40
2019-04-04T19:32:27.371Z,7.40
2019-04-04T19:35:16.341Z,7.50
2019-04-04T19:38:04.386Z,7.50
2019-04-04T19:40:53.204Z,7.50
2019-04-04T19:43:41.629Z,7.40
2019-04-04T19:46:36.903Z,7.40
2019-04-04T19:49:19.005Z,7.50
2019-04-04T19:52:07.239Z,7.40
2019-04-04T19:54:55.959Z,7.30
2019-04-04T19:57:43.975Z,7.10
2019-04-04T20:00:32.280Z,7.20
2019-04-04T20:03:21.105Z,7.30
2019-04-04T20:06:08.965Z,7.20
2019-04-04T20:08:56.991Z,7.20
2019-04-04T20:11:45.301Z,7.40
2019-04-04T20:14:33.931Z,7.40
2019-04-04T20:17:21.923Z,7.40
2019-04-04T20:20:10.384Z,7.30
2019-04-04T20:22:58.415Z,7.40
2019-04-04T20:25:46.592Z,7.40
2019-04-04T20:28:34.887Z,7.30
2019-04-04T20:31:22.842Z,7.40
2019-04-04T20:34:10.788Z,7.20
2019-04-04T20:36:58.475Z,7.20
2019-04-04T20:39:46.935Z,7.30
2019-04-04T20:42:35.299Z,7.40
2019-04-04T20:45:23.475Z,7.30
2019-04-04T20:48:11.243Z,7.30
2019-04-04T20:50:59.117Z,7.30
2019-04-04T20:53:47.128Z,7.30
2019-04-04T20:56:35.232Z,7.10
2019-04-04T20:59:23.226Z,7.10
2019-04-04T21:02:11.754Z,7.10
2019-04-04T21:04:59.531Z,7.20
2019-04-04T21:07:47.418Z,7.20
2019-04-04T21:10:35.834Z,7.10
2019-04-04T21:13:23.571Z,7.20
2019-04-04T21:16:11.613Z,7.20
2019-04-04T21:18:59.826Z,7.20
2019-04-04T21:21:48.282Z,7.20
2019-04-04T21:24:36.309Z,7.30
2019-04-04T21:27:24.295Z,7.30
2019-04-04T21:30:12.663Z,7.40
2019-04-04T21:33:00.471Z,7.30
2019-04-04T21:35:48.650Z,7.40
2019-04-04T21:38:36.226Z,7.50
2019-04-04T21:41:24.555Z,7.50
2019-04-04T21:44:12.358Z,7.30
2019-04-04T21:47:00.578Z,7.30
2019-04-04T21:49:48.663Z,7.30
2019-04-04T21:52:37.357Z,7.20
2019-04-04T21:55:25.100Z,7.20
2019-04-04T21:58:12.842Z,7.30
2019-04-04T22:01:00.819Z,7.40
2019-04-04T22:03:49.115Z,7.40
2019-04-04T22:06:37.289Z,7.40
2019-04-04T22:09:24.774Z,7.40
2019-04-04T22:12:12.264Z,7.40
2019-04-04T22:15:00.378Z,7.30
2019-04-04T22:17:48.629Z,7.40
2019-04-04T22:20:36.872Z,7.30
2019-04-04T22:23:25.600Z,7.40
2019-04-04T22:26:13.816Z,7.40
2019-04-04T22:29:02.004Z,7.30
2019-04-04T22:31:49.994Z,7.30
2019-04-04T22:34:37.644Z,7.20
2019-04-04T22:37:26.327Z,7.30
2019-04-04T22:40:14.426Z,7.20
2019-04-04T22:43:02.695Z,7.10
2019-04-04T22:45:51.082Z,7.10
2019-04-04T22:48:39.651Z,7.10
2019-04-04T22:51:28.011Z,7.10
2019-04-04T22:54:16.239Z,7.20
2019-04-04T22:57:03.807Z,7.30
2019-04-04T22:59:51.297Z,7.30
2019-04-04T23:02:39.611Z,7.20
2019-04-04T23:05:27.626Z,7.30
2019-04-04T23:08:15.971Z,7.40
2019-04-04T23:11:04.948Z,7.40
2019-04-04T23:13:52.781Z,7.40
2019-04-04T23:16:41.335Z,7.20
2019-04-04T23:19:29.552Z,7.10
2019-04-04T23:22:17.572Z,7.20
2019-04-04T23:25:06.210Z,7.20
2019-04-04T23:27:54.640Z,7.30
2019-04-04T23:30:42.661Z,7.30
2019-04-04T23:33:31.328Z,7.30
2019-04-04T23:36:20.025Z,7.30
2019-04-04T23:39:08.279Z,7.30
2019-04-04T23:41:56.754Z,7.40
2019-04-04T23:44:45.810Z,7.30
2019-04-04T23:47:42.706Z,7.40
2019-04-04T23:50:23.575Z,7.40
2019-04-04T23:53:12.118Z,7.40
2019-04-04T23:56:00.750Z,7.40
2019-04-04T23:58:48.621Z,7.30
